createdAt,value
2018-05-21T00:00:08.552Z,17.08
2018-05-21T00:02:36.817Z,24.48
2018-05-21T00:05:10.325Z,24.90
2018-05-21T00:07:38.707Z,21.30
2018-05-21T00:10:07.081Z,16.37
2018-05-21T00:12:35.473Z,12.88
2018-05-21T00:15:02.961Z,16.50
2018-05-21T00:17:30.701Z,12.32
2018-05-21T00:20:01.189Z,10.75
2018-05-21T00:22:28.674Z,9.15
2018-05-21T00:24:57.051Z,7.93
2018-05-21T00:27:25.304Z,7.87
2018-05-21T00:29:52.810Z,10.13
2018-05-21T00:32:20.299Z,14.07
2018-05-21T00:34:47.800Z,13.20
2018-05-21T00:37:16.164Z,10.32
2018-05-21T00:39:44.489Z,9.23
2018-05-21T00:42:11.973Z,13.43
2018-05-21T00:44:39.539Z,7.85
2018-05-21T00:47:07.018Z,9.15
2018-05-21T00:49:34.524Z,13.30
2018-05-21T00:52:02.774Z,12.88
2018-05-21T00:54:31.045Z,13.57
2018-05-21T00:56:58.530Z,11.00
2018-05-21T00:59:27.817Z,10.90
2018-05-21T01:01:56.058Z,7.45
2018-05-21T01:04:24.694Z,11.25
2018-05-21T01:06:52.952Z,10.07
2018-05-21T01:09:20.449Z,12.80
2018-05-21T01:11:58.013Z,8.65
2018-05-21T01:14:26.282Z,7.95
2018-05-21T01:16:53.769Z,10.27
2018-05-21T01:19:22.035Z,10.98
2018-05-21T01:21:50.282Z,12.95
2018-05-21T01:24:17.896Z,12.32
2018-05-21T01:26:45.391Z,12.73
2018-05-21T01:29:12.890Z,10.73
2018-05-21T01:31:41.134Z,8.80
2018-05-21T01:34:09.613Z,10.50
2018-05-21T01:36:37.097Z,10.77
2018-05-21T01:39:04.602Z,11.60
2018-05-21T01:41:32.090Z,12.43
2018-05-21T01:43:59.713Z,9.95
2018-05-21T01:46:28.057Z,10.20
2018-05-21T01:48:56.446Z,9.93
2018-05-21T01:51:24.702Z,7.78
2018-05-21T01:53:52.201Z,11.98
2018-05-21T01:56:20.653Z,9.43
2018-05-21T01:58:48.904Z,13.38
2018-05-21T02:01:16.397Z,11.50
2018-05-21T02:03:44.890Z,11.57
2018-05-21T02:06:13.153Z,14.32
2018-05-21T02:08:41.402Z,10.02
2018-05-21T02:11:08.914Z,11.50
2018-05-21T02:13:37.153Z,15.48
2018-05-21T02:16:05.890Z,8.45
2018-05-21T02:18:34.271Z,7.80
2018-05-21T02:21:02.453Z,9.65
2018-05-21T02:23:30.049Z,13.10
2018-05-21T02:25:57.549Z,17.58
2018-05-21T02:28:27.874Z,18.45
2018-05-21T02:30:56.134Z,11.15
2018-05-21T02:33:24.389Z,12.23
2018-05-21T02:35:52.007Z,12.18
2018-05-21T02:38:20.266Z,10.38
2018-05-21T02:40:48.542Z,12.37
2018-05-21T02:43:16.900Z,10.30
2018-05-21T02:45:44.397Z,11.52
2018-05-21T02:48:11.997Z,12.07
2018-05-21T02:50:40.345Z,14.50
2018-05-21T02:53:08.825Z,9.82
2018-05-21T02:55:36.326Z,11.10
2018-05-21T02:58:03.804Z,16.27
2018-05-21T03:00:31.294Z,10.55
2018-05-21T03:02:58.894Z,10.70
2018-05-21T03:05:27.271Z,9.40
2018-05-21T03:07:54.871Z,15.88
2018-05-21T03:10:25.265Z,11.55
2018-05-21T03:12:52.737Z,9.95
2018-05-21T03:15:24.257Z,10.73
2018-05-21T03:17:51.745Z,11.23
2018-05-21T03:20:19.229Z,11.88
2018-05-21T03:22:47.620Z,11.00
2018-05-21T03:25:15.867Z,15.02
2018-05-21T03:27:43.365Z,14.80
2018-05-21T03:30:10.851Z,12.52
2018-05-21T03:32:40.425Z,10.88
2018-05-21T03:35:08.614Z,17.42
2018-05-21T03:37:36.108Z,9.48
2018-05-21T03:40:03.718Z,13.40
2018-05-21T03:42:31.986Z,12.88
2018-05-21T03:45:01.105Z,10.68
2018-05-21T03:47:28.612Z,12.50
2018-05-21T03:49:56.097Z,12.77
2018-05-21T03:52:23.589Z,14.23
2018-05-21T03:54:52.630Z,12.10
2018-05-21T03:57:20.133Z,11.60
2018-05-21T04:00:00.222Z,14.60
2018-05-21T04:02:39.582Z,13.52
2018-05-21T04:05:07.067Z,16.67
2018-05-21T04:07:35.342Z,17.55
2018-05-21T04:10:02.973Z,24.33
2018-05-21T04:12:34.472Z,12.73
2018-05-21T04:15:02.717Z,18.85
2018-05-21T04:17:30.209Z,11.93
2018-05-21T04:19:58.457Z,12.43
2018-05-21T04:22:25.952Z,11.55
2018-05-21T04:24:55.775Z,17.23
2018-05-21T04:27:24.284Z,12.70
2018-05-21T04:29:51.770Z,15.63
2018-05-21T04:32:19.276Z,17.30
2018-05-21T04:34:46.869Z,21.12
2018-05-21T04:37:24.162Z,16.83
2018-05-21T04:39:51.649Z,10.38
2018-05-21T04:42:19.150Z,16.58
2018-05-21T04:44:48.318Z,15.45
2018-05-21T04:47:16.710Z,21.90
2018-05-21T04:49:45.967Z,12.18
2018-05-21T04:52:13.469Z,17.27
2018-05-21T04:54:41.757Z,26.10
2018-05-21T04:57:09.413Z,23.10
2018-05-21T04:59:38.642Z,22.42
2018-05-21T05:02:06.749Z,20.45
2018-05-21T05:04:34.250Z,18.23
2018-05-21T05:07:02.542Z,14.05
2018-05-21T05:09:30.043Z,30.05
2018-05-21T05:11:58.650Z,15.48
2018-05-21T05:14:26.918Z,14.52
2018-05-21T05:16:54.519Z,12.10
2018-05-21T05:19:22.013Z,12.48
2018-05-21T05:21:49.498Z,13.65
2018-05-21T05:24:16.998Z,8.80
2018-05-21T05:26:46.102Z,11.82
2018-05-21T05:29:13.622Z,10.30
2018-05-21T05:31:41.869Z,11.30
2018-05-21T05:34:09.370Z,11.88
2018-05-21T05:36:37.621Z,11.57
2018-05-21T05:39:05.914Z,13.55
2018-05-21T05:41:34.910Z,10.65
2018-05-21T05:44:03.165Z,11.77
2018-05-21T05:46:30.766Z,11.00
2018-05-21T05:48:58.262Z,15.15
2018-05-21T05:51:25.743Z,13.35
2018-05-21T05:53:53.235Z,11.27
2018-05-21T05:56:21.493Z,13.10
2018-05-21T05:58:49.933Z,14.85
2018-05-21T06:01:17.409Z,14.57
2018-05-21T06:03:44.999Z,14.20
2018-05-21T06:06:12.472Z,12.27
2018-05-21T06:08:40.750Z,11.68
2018-05-21T06:11:09.003Z,16.98
2018-05-21T06:13:36.496Z,13.75
2018-05-21T06:16:04.009Z,16.70
2018-05-21T06:18:31.489Z,13.18
2018-05-21T06:20:59.008Z,13.93
2018-05-21T06:23:26.494Z,12.60
2018-05-21T06:25:53.994Z,16.30
2018-05-21T06:28:22.245Z,11.77
2018-05-21T06:30:49.757Z,10.93
2018-05-21T06:33:17.263Z,14.25
2018-05-21T06:35:44.762Z,12.05
2018-05-21T06:38:12.237Z,10.15
2018-05-21T06:40:39.729Z,9.23
2018-05-21T06:43:07.225Z,13.93
2018-05-21T06:45:34.728Z,16.30
2018-05-21T06:48:02.205Z,11.82
2018-05-21T06:50:29.707Z,20.85
2018-05-21T06:52:57.185Z,12.70
2018-05-21T06:55:24.688Z,12.73
2018-05-21T06:57:52.237Z,13.15
2018-05-21T07:00:20.509Z,12.35
2018-05-21T07:02:47.989Z,13.62
2018-05-21T07:05:15.541Z,12.60
2018-05-21T07:07:43.105Z,12.48
2018-05-21T07:10:10.593Z,14.32
2018-05-21T07:12:38.837Z,15.05
2018-05-21T07:15:07.033Z,12.25
2018-05-21T07:17:34.513Z,16.00
2018-05-21T07:20:02.777Z,11.63
2018-05-21T07:22:31.041Z,13.98
2018-05-21T07:24:59.305Z,12.50
2018-05-21T07:27:26.794Z,11.65
2018-05-21T07:29:55.062Z,11.73
2018-05-21T07:32:27.945Z,15.77
2018-05-21T07:34:56.230Z,13.18
2018-05-21T07:37:24.476Z,11.45
2018-05-21T07:39:52.673Z,12.02
2018-05-21T07:42:22.042Z,11.18
2018-05-21T07:44:49.558Z,13.60
2018-05-21T07:47:17.270Z,12.10
2018-05-21T07:49:44.755Z,13.80
2018-05-21T07:52:12.365Z,11.63
2018-05-21T07:54:39.887Z,12.02
2018-05-21T07:57:08.177Z,9.95
2018-05-21T07:59:36.749Z,11.00
2018-05-21T08:02:05.017Z,11.30
2018-05-21T08:04:33.374Z,8.95
2018-05-21T08:07:00.871Z,13.00
2018-05-21T08:09:29.117Z,10.23
2018-05-21T08:11:56.626Z,10.75
2018-05-21T08:14:24.102Z,11.68
2018-05-21T08:16:51.612Z,12.65
2018-05-21T08:19:19.109Z,12.23
2018-05-21T08:21:46.609Z,15.90
2018-05-21T08:24:14.096Z,12.82
2018-05-21T08:26:42.364Z,8.10
2018-05-21T08:29:09.849Z,14.20
2018-05-21T08:31:38.141Z,12.13
2018-05-21T08:34:05.634Z,11.82
2018-05-21T08:36:33.145Z,13.15
2018-05-21T08:39:01.404Z,13.75
2018-05-21T08:41:29.682Z,13.40
2018-05-21T08:43:57.939Z,13.95
2018-05-21T08:46:25.434Z,18.35
2018-05-21T08:48:53.816Z,10.02
2018-05-21T08:51:21.235Z,13.38
2018-05-21T08:56:22.646Z,14.32
2018-05-21T08:58:50.966Z,12.68
2018-05-21T09:01:18.511Z,13.85
2018-05-21T09:03:46.040Z,12.98
2018-05-21T09:06:13.611Z,16.60
2018-05-21T09:08:41.190Z,15.00
2018-05-21T09:11:08.701Z,16.60
2018-05-21T09:13:36.973Z,14.52
2018-05-21T09:16:04.451Z,15.80
2018-05-21T09:18:32.785Z,13.20
2018-05-21T09:21:00.320Z,17.80
2018-05-21T09:23:27.817Z,16.17
2018-05-21T09:25:55.415Z,14.57
2018-05-21T09:28:22.917Z,14.02
2018-05-21T09:30:50.459Z,14.50
2018-05-21T09:33:17.957Z,11.18
2018-05-21T09:35:45.441Z,10.98
2018-05-21T09:38:13.709Z,13.35
2018-05-21T09:40:41.188Z,17.92
2018-05-21T09:43:09.465Z,12.85
2018-05-21T09:45:36.972Z,16.67
2018-05-21T09:48:04.560Z,11.32
2018-05-21T09:50:31.996Z,11.98
2018-05-21T09:52:59.777Z,13.00
2018-05-21T09:55:27.261Z,12.35
2018-05-21T09:57:55.529Z,12.50
2018-05-21T10:00:23.921Z,13.82
2018-05-21T10:02:52.197Z,10.30
2018-05-21T10:05:20.522Z,11.52
2018-05-21T10:07:48.864Z,16.23
2018-05-21T10:10:16.734Z,13.73
2018-05-21T10:12:44.228Z,11.12
2018-05-21T10:15:11.724Z,15.25
2018-05-21T10:17:39.216Z,14.05
2018-05-21T10:20:06.726Z,12.45
2018-05-21T10:22:34.214Z,13.57
2018-05-21T10:25:02.488Z,10.95
2018-05-21T10:27:29.981Z,12.27
2018-05-21T10:29:57.501Z,14.07
2018-05-21T10:32:25.761Z,15.43
2018-05-21T10:34:53.269Z,18.77
2018-05-21T10:37:20.793Z,20.50
2018-05-21T10:39:48.279Z,9.23
2018-05-21T10:42:16.525Z,10.80
2018-05-21T10:44:45.141Z,17.17
2018-05-21T10:47:12.629Z,9.60
2018-05-21T10:49:40.194Z,10.52
2018-05-21T10:52:07.687Z,9.13
2018-05-21T10:54:35.197Z,7.95
2018-05-21T10:57:02.696Z,9.90
2018-05-21T10:59:30.201Z,8.43
2018-05-21T11:01:58.521Z,9.48
2018-05-21T11:04:26.393Z,9.98
2018-05-21T11:06:54.875Z,8.48
2018-05-21T11:09:22.391Z,7.65
2018-05-21T11:11:50.641Z,8.32
2018-05-21T11:14:18.153Z,10.88
2018-05-21T11:16:45.749Z,9.48
2018-05-21T11:19:13.272Z,11.70
2018-05-21T11:21:40.921Z,12.73
2018-05-21T11:24:09.225Z,11.23
2018-05-21T11:26:43.861Z,11.48
2018-05-21T11:29:12.477Z,7.37
2018-05-21T11:31:40.190Z,10.03
2018-05-21T11:34:08.926Z,6.70
2018-05-21T11:36:36.433Z,10.50
2018-05-21T11:39:03.933Z,8.60
2018-05-21T11:41:31.509Z,8.98
2018-05-21T11:43:59.216Z,7.40
2018-05-21T11:46:26.833Z,5.50
2018-05-21T11:48:54.370Z,8.20
2018-05-21T11:51:22.746Z,7.05
2018-05-21T11:53:50.417Z,7.30
2018-05-21T11:56:17.921Z,4.87
2018-05-21T11:58:45.737Z,5.93
2018-05-21T12:01:23.549Z,7.80
2018-05-21T12:03:51.389Z,7.33
2018-05-21T12:06:19.144Z,8.00
2018-05-21T12:08:47.402Z,7.93
2018-05-21T12:11:19.517Z,8.00
2018-05-21T12:13:47.057Z,6.70
2018-05-21T12:16:14.562Z,5.50
2018-05-21T12:18:42.064Z,9.57
2018-05-21T12:21:09.563Z,4.10
2018-05-21T12:23:37.049Z,9.73
2018-05-21T12:26:05.342Z,7.90
2018-05-21T12:28:32.832Z,6.30
2018-05-21T12:31:00.342Z,6.70
2018-05-21T12:33:27.867Z,9.37
2018-05-21T12:35:55.368Z,5.70
2018-05-21T12:38:23.629Z,8.37
2018-05-21T12:40:51.149Z,6.23
2018-05-21T12:43:18.785Z,5.83
2018-05-21T12:45:46.264Z,9.87
2018-05-21T12:48:13.827Z,12.47
2018-05-21T12:50:41.311Z,7.20
2018-05-21T12:53:08.813Z,18.83
2018-05-21T12:55:37.533Z,10.53
2018-05-21T12:58:05.717Z,12.13
2018-05-21T13:00:33.209Z,8.53
2018-05-21T13:03:00.826Z,6.07
2018-05-21T13:05:28.309Z,4.90
2018-05-21T13:07:55.805Z,4.43
2018-05-21T13:10:25.059Z,9.03
2018-05-21T13:12:52.669Z,5.30
2018-05-21T13:15:27.850Z,5.60
2018-05-21T13:17:55.357Z,5.50
2018-05-21T13:20:22.862Z,6.23
2018-05-21T13:22:50.360Z,8.67
2018-05-21T13:25:18.473Z,6.13
2018-05-21T13:27:47.676Z,4.70
2018-05-21T13:30:15.145Z,5.40
2018-05-21T13:32:42.869Z,6.70
2018-05-21T13:35:10.406Z,7.33
2018-05-21T13:37:37.933Z,5.00
2018-05-21T13:40:05.421Z,5.50
2018-05-21T13:42:32.946Z,4.60
2018-05-21T13:45:00.422Z,8.23
2018-05-21T13:47:28.925Z,6.33
2018-05-21T13:49:56.408Z,4.60
2018-05-21T13:52:24.535Z,4.20
2018-05-21T13:54:52.018Z,6.73
2018-05-21T13:57:19.677Z,7.23
2018-05-21T13:59:47.169Z,6.57
2018-05-21T14:02:15.464Z,5.23
2018-05-21T14:04:44.522Z,7.80
2018-05-21T14:07:12.020Z,4.70
2018-05-21T14:09:40.267Z,5.73
2018-05-21T14:12:07.740Z,4.90
2018-05-21T14:14:36.005Z,4.63
2018-05-21T14:17:03.485Z,5.43
2018-05-21T14:19:31.745Z,13.53
2018-05-21T14:21:59.225Z,8.00
2018-05-21T14:24:27.532Z,6.57
2018-05-21T14:26:55.010Z,6.57
2018-05-21T14:29:22.575Z,6.20
2018-05-21T14:31:50.774Z,5.47
2018-05-21T14:34:18.287Z,8.83
2018-05-21T14:36:45.785Z,6.63
2018-05-21T14:39:13.287Z,5.90
2018-05-21T14:41:40.769Z,4.43
2018-05-21T14:44:08.281Z,7.63
2018-05-21T14:46:35.765Z,5.20
2018-05-21T14:49:04.030Z,6.87
2018-05-21T14:51:32.281Z,5.90
2018-05-21T14:53:59.776Z,10.47
2018-05-21T14:56:29.174Z,7.60
2018-05-21T14:58:57.544Z,6.57
2018-05-21T15:01:25.785Z,7.43
2018-05-21T15:03:54.414Z,6.57
2018-05-21T15:06:21.973Z,6.63
2018-05-21T15:08:51.956Z,7.53
2018-05-21T15:11:22.508Z,5.70
2018-05-21T15:13:51.780Z,9.90
2018-05-21T15:16:19.260Z,10.27
2018-05-21T15:18:48.538Z,7.22
2018-05-21T15:21:23.057Z,8.40
2018-05-21T15:23:50.623Z,7.75
2018-05-21T15:26:18.408Z,7.45
2018-05-21T15:28:57.183Z,11.50
2018-05-21T15:31:24.919Z,7.18
2018-05-21T15:33:53.186Z,6.97
2018-05-21T15:36:21.462Z,7.72
2018-05-21T15:38:49.856Z,10.48
2018-05-21T15:41:19.096Z,7.80
2018-05-21T15:43:46.702Z,8.83
2018-05-21T15:46:15.107Z,7.80
2018-05-21T15:48:42.669Z,8.98
2018-05-21T15:51:17.140Z,7.62
2018-05-21T15:53:45.477Z,8.77
2018-05-21T15:56:13.090Z,8.98
2018-05-21T15:58:40.580Z,11.65
2018-05-21T16:01:09.051Z,8.68
2018-05-21T16:03:43.017Z,20.42
2018-05-21T16:06:10.808Z,9.98
2018-05-21T16:08:38.333Z,9.75
2018-05-21T16:11:07.561Z,13.10
2018-05-21T16:13:42.097Z,10.57
2018-05-21T16:16:09.592Z,8.70
2018-05-21T16:18:37.080Z,14.77
2018-05-21T16:21:04.839Z,13.25
2018-05-21T16:23:32.453Z,17.60
2018-05-21T16:25:59.961Z,14.23
2018-05-21T16:28:28.449Z,11.90
2018-05-21T16:30:56.087Z,9.38
2018-05-21T16:33:23.579Z,14.05
2018-05-21T16:35:51.192Z,11.52
2018-05-21T16:38:19.441Z,9.63
2018-05-21T16:40:48.174Z,12.20
2018-05-21T16:43:16.629Z,11.15
2018-05-21T16:45:44.981Z,9.75
2018-05-21T16:48:13.576Z,10.35
2018-05-21T16:50:42.232Z,9.65
2018-05-21T16:53:09.849Z,14.30
2018-05-21T16:55:38.428Z,10.93
2018-05-21T16:58:09.825Z,15.27
2018-05-21T17:00:38.300Z,18.15
2018-05-21T17:03:05.913Z,10.13
2018-05-21T17:05:33.397Z,10.10
2018-05-21T17:08:01.673Z,13.23
2018-05-21T17:10:29.925Z,9.60
2018-05-21T17:12:57.437Z,10.15
2018-05-21T17:15:24.918Z,7.47
2018-05-21T17:17:52.434Z,11.73
2018-05-21T17:20:20.761Z,9.70
2018-05-21T17:22:48.974Z,15.18
2018-05-21T17:25:17.238Z,10.73
2018-05-21T17:27:44.745Z,13.37
2018-05-21T17:30:12.235Z,10.65
2018-05-21T17:32:39.732Z,11.10
2018-05-21T17:35:07.977Z,9.57
2018-05-21T17:37:35.481Z,12.70
2018-05-21T17:40:03.779Z,10.93
2018-05-21T17:42:31.301Z,10.73
2018-05-21T17:44:59.558Z,12.07
2018-05-21T17:47:27.059Z,37.67
2018-05-21T17:49:54.553Z,20.10
2018-05-21T17:52:22.062Z,12.95
2018-05-21T17:54:50.325Z,10.18
2018-05-21T17:57:17.830Z,10.27
2018-05-21T17:59:45.335Z,10.35
2018-05-21T18:02:12.834Z,7.93
2018-05-21T18:04:41.085Z,12.87
2018-05-21T18:07:09.357Z,8.83
2018-05-21T18:09:36.840Z,10.80
2018-05-21T18:12:05.085Z,10.13
2018-05-21T18:14:32.618Z,12.30
2018-05-21T18:17:00.093Z,8.35
2018-05-21T18:19:27.601Z,10.63
2018-05-21T18:21:55.105Z,12.17
2018-05-21T18:24:22.621Z,12.75
2018-05-21T18:26:50.109Z,12.25
2018-05-21T18:29:17.621Z,10.50
2018-05-21T18:31:45.889Z,7.28
2018-05-21T18:34:14.169Z,6.68
2018-05-21T18:36:41.653Z,6.15
2018-05-21T18:39:09.165Z,8.93
2018-05-21T18:41:36.705Z,7.22
2018-05-21T18:44:04.206Z,4.22
2018-05-21T18:46:31.680Z,5.65
2018-05-21T18:48:59.953Z,8.75
2018-05-21T18:51:28.197Z,6.22
2018-05-21T18:53:55.736Z,8.90
2018-05-21T18:56:23.942Z,3.55
2018-05-21T18:58:51.434Z,5.43
2018-05-21T19:01:19.677Z,12.23
2018-05-21T19:03:47.171Z,4.57
2018-05-21T19:06:15.469Z,3.90
2018-05-21T19:08:42.965Z,4.40
2018-05-21T19:11:10.441Z,2.90
2018-05-21T19:13:38.393Z,6.03
2018-05-21T19:16:05.874Z,3.85
2018-05-21T19:18:33.360Z,6.47
2018-05-21T19:21:01.617Z,9.02
2018-05-21T19:23:29.105Z,6.68
2018-05-21T19:25:56.589Z,14.20
2018-05-21T19:28:24.096Z,7.57
2018-05-21T19:30:52.370Z,7.95
2018-05-21T19:33:19.849Z,3.55
2018-05-21T19:35:48.108Z,4.22
2018-05-21T19:38:16.367Z,2.97
2018-05-21T19:40:43.885Z,2.85
2018-05-21T19:43:11.377Z,3.15
2018-05-21T19:45:38.878Z,3.17
2018-05-21T19:48:07.136Z,11.45
2018-05-21T19:50:34.694Z,6.10
2018-05-21T19:53:03.010Z,9.52
2018-05-21T19:55:30.657Z,6.87
2018-05-21T19:57:58.200Z,11.80
2018-05-21T20:00:26.534Z,11.50
2018-05-21T20:02:54.106Z,6.32
2018-05-21T20:05:21.605Z,11.50
2018-05-21T20:07:49.854Z,9.50
2018-05-21T20:10:17.351Z,6.00
2018-05-21T20:12:45.602Z,21.85
2018-05-21T20:15:13.097Z,12.68
2018-05-21T20:17:41.349Z,5.72
2018-05-21T20:20:09.613Z,5.30
2018-05-21T20:22:37.094Z,5.80
2018-05-21T20:25:05.361Z,8.23
2018-05-21T20:27:32.838Z,6.68
2018-05-21T20:30:01.101Z,6.35
2018-05-21T20:32:29.345Z,7.70
2018-05-21T20:34:56.845Z,6.45
2018-05-21T20:37:25.090Z,8.10
2018-05-21T20:39:52.574Z,5.03
2018-05-21T20:42:20.065Z,4.65
2018-05-21T20:44:47.541Z,7.93
2018-05-21T20:47:15.043Z,4.80
2018-05-21T20:49:42.513Z,4.18
2018-05-21T20:52:10.864Z,4.65
2018-05-21T20:54:38.270Z,5.00
2018-05-21T20:57:06.536Z,7.57
2018-05-21T20:59:35.668Z,4.05
2018-05-21T21:02:03.177Z,6.78
2018-05-21T21:04:31.429Z,5.18
2018-05-21T21:06:58.985Z,9.43
2018-05-21T21:09:26.461Z,5.00
2018-05-21T21:11:54.013Z,36.70
2018-05-21T21:14:21.506Z,26.30
2018-05-21T21:16:49.771Z,5.53
2018-05-21T21:19:18.026Z,2.65
2018-05-21T21:21:45.527Z,3.47
2018-05-21T21:24:13.771Z,1.70
2018-05-21T21:26:41.261Z,3.40
2018-05-21T21:29:09.507Z,3.30
2018-05-21T21:31:37.020Z,2.05
2018-05-21T21:34:04.498Z,3.05
2018-05-21T21:36:31.997Z,4.37
2018-05-21T21:39:00.980Z,4.15
2018-05-21T21:41:28.468Z,2.83
2018-05-21T21:43:56.713Z,4.12
2018-05-21T21:46:24.212Z,3.67
2018-05-21T21:48:51.735Z,3.22
2018-05-21T21:51:20.378Z,3.50
2018-05-21T21:53:47.976Z,3.08
2018-05-21T21:56:15.453Z,2.75
2018-05-21T21:58:42.946Z,5.05
2018-05-21T22:01:10.425Z,3.22
2018-05-21T22:03:37.921Z,3.87
2018-05-21T22:06:05.390Z,4.53
2018-05-21T22:08:33.652Z,3.20
2018-05-21T22:11:01.134Z,4.03
2018-05-21T22:13:29.421Z,3.45
2018-05-21T22:15:56.937Z,3.53
2018-05-21T22:18:24.429Z,4.18
2018-05-21T22:20:56.245Z,4.30
2018-05-21T22:23:23.755Z,5.18
2018-05-21T22:25:51.994Z,5.25
2018-05-21T22:28:19.485Z,4.95
2018-05-21T22:30:47.738Z,4.07
2018-05-21T22:33:15.237Z,3.20
2018-05-21T22:35:42.720Z,5.07
2018-05-21T22:38:10.204Z,6.85
2018-05-21T22:40:37.691Z,7.80
2018-05-21T22:43:05.972Z,4.22
2018-05-21T22:45:34.222Z,3.92
2018-05-21T22:48:01.717Z,6.97
2018-05-21T22:50:29.962Z,4.10
2018-05-21T22:52:57.462Z,5.80
2018-05-21T22:55:25.703Z,3.87
2018-05-21T22:57:53.189Z,6.25
2018-05-21T23:00:21.445Z,4.72
2018-05-21T23:02:48.962Z,13.70
2018-05-21T23:05:16.454Z,12.15
2018-05-21T23:07:43.959Z,7.10
2018-05-21T23:10:11.438Z,8.13
2018-05-21T23:12:38.909Z,7.85
2018-05-21T23:15:06.401Z,6.93
2018-05-21T23:17:33.877Z,5.25
2018-05-21T23:20:02.146Z,3.80
2018-05-21T23:22:37.817Z,6.80
2018-05-21T23:25:05.325Z,6.75
2018-05-21T23:27:32.807Z,7.68
2018-05-21T23:30:01.073Z,5.75
2018-05-21T23:32:28.554Z,3.55
2018-05-21T23:34:56.814Z,4.68
2018-05-21T23:37:24.286Z,7.65
2018-05-21T23:39:52.553Z,8.43
2018-05-21T23:42:20.041Z,10.70
2018-05-21T23:44:47.535Z,4.32
2018-05-21T23:47:15.026Z,6.60
2018-05-21T23:49:42.528Z,5.30
2018-05-21T23:52:10.042Z,5.20
2018-05-21T23:54:37.514Z,5.53
2018-05-21T23:57:04.990Z,5.93
2018-05-21T23:59:32.501Z,5.35
